SCQW weather

Quemchi Airport
Quemchi, Los Lagos Region, Chile

Public forecast

Using degrees Celsius for public forecast. Weather courtesy of forecast.io.

Closest aviation weather report (METAR) to Quemchi Airport

Closest report is Mocopulli Airport, 14.3 nm (26.5 km) SW. Retrieved 2019/10/17 14:00 UTC (44 minutes ago):

SCPQ 171400Z 35005KT 290V040 9999 FEW015 OVC030 09/08 Q1023

Closest aviation forecast (TAF) to Quemchi Airport

Closest forecast is Mocopulli Airport, 14.3 nm (26.5 km) SW. Retrieved 2019/10/17 12:00 UTC (3 hours ago):

TAF SCPQ 171020Z 1712/1724 34008KT 9999 BKN030 TN08/1712Z TX13/1718Z TEMPO 1717/1721 VRB03KT 8000 -SHRA OVC020